Little Plymouth, Virginia
Current Conditions -  °F | °C
As of 1:15 PM on Friday 24 Oct 2014 (Local Time) from KFYJ Reporting Station
Clear Clear  
Wind Chill: 69°   Ceiling: Unl
Heat Index: 69°   Visibility: 10mi
Dew Point: 41°   Wind: 9mph
Humidity: 37%   Direction: 310°NW
Pressure: 29.96"   Gusts: 16mph
Location:  37.63°N, 76.79°W
Report Text: KFYJ 241715Z AUTO 31008G14KT 270V330 10SM CLR 20/05 A2996 RMK AO2 T02030050
Loading
Personal Weather Stations






























Interactive Weather Map
Tropical Storm Tracking
New forecast layout! Learn more

10-Day Weather Forecast

Advertisements
Track Severe Weather on mobile